sensor_id;sensor_type;location;lat;lon;timestamp;P1;durP1;ratioP1;P2;durP2;ratioP2
1719;SDS011;857;52.872;9.692;2023-04-25T00:02:25;5.63;;;3.57;;
1719;SDS011;857;52.872;9.692;2023-04-25T00:04:53;4.43;;;3.70;;
1719;SDS011;857;52.872;9.692;2023-04-25T00:07:24;8.63;;;3.90;;
1719;SDS011;857;52.872;9.692;2023-04-25T00:09:52;6.47;;;3.90;;
1719;SDS011;857;52.872;9.692;2023-04-25T00:12:19;6.63;;;4.30;;
1719;SDS011;857;52.872;9.692;2023-04-25T00:14:49;6.50;;;3.63;;
1719;SDS011;857;52.872;9.692;2023-04-25T00:17:18;5.17;;;3.93;;
1719;SDS011;857;52.872;9.692;2023-04-25T00:19:45;4.80;;;3.90;;
1719;SDS011;857;52.872;9.692;2023-04-25T00:22:13;5.93;;;3.53;;
1719;SDS011;857;52.872;9.692;2023-04-25T00:24:41;8.17;;;4.00;;
1719;SDS011;857;52.872;9.692;2023-04-25T00:27:09;9.77;;;3.87;;
1719;SDS011;857;52.872;9.692;2023-04-25T00:29:36;4.27;;;3.13;;
1719;SDS011;857;52.872;9.692;2023-04-25T00:32:05;5.40;;;4.10;;
1719;SDS011;857;52.872;9.692;2023-04-25T00:34:33;6.03;;;3.50;;
1719;SDS011;857;52.872;9.692;2023-04-25T00:37:01;5.17;;;3.63;;
1719;SDS011;857;52.872;9.692;2023-04-25T00:39:29;7.33;;;3.73;;
1719;SDS011;857;52.872;9.692;2023-04-25T00:41:56;6.20;;;3.90;;
1719;SDS011;857;52.872;9.692;2023-04-25T00:44:25;5.60;;;3.20;;
1719;SDS011;857;52.872;9.692;2023-04-25T00:46:55;7.63;;;3.80;;
1719;SDS011;857;52.872;9.692;2023-04-25T00:49:24;5.20;;;2.60;;
1719;SDS011;857;52.872;9.692;2023-04-25T00:51:51;7.40;;;4.20;;
1719;SDS011;857;52.872;9.692;2023-04-25T00:54:20;4.60;;;3.70;;
1719;SDS011;857;52.872;9.692;2023-04-25T00:56:48;8.90;;;4.20;;
1719;SDS011;857;52.872;9.692;2023-04-25T00:59:15;6.20;;;4.20;;
1719;SDS011;857;52.872;9.692;2023-04-25T01:01:44;5.07;;;3.43;;
1719;SDS011;857;52.872;9.692;2023-04-25T01:04:12;7.00;;;4.07;;
1719;SDS011;857;52.872;9.692;2023-04-25T01:06:41;5.07;;;3.70;;
1719;SDS011;857;52.872;9.692;2023-04-25T01:09:09;4.47;;;3.20;;
1719;SDS011;857;52.872;9.692;2023-04-25T01:11:37;5.13;;;2.80;;
1719;SDS011;857;52.872;9.692;2023-04-25T01:14:05;5.40;;;2.90;;
1719;SDS011;857;52.872;9.692;2023-04-25T01:16:33;2.80;;;2.40;;
1719;SDS011;857;52.872;9.692;2023-04-25T01:19:05;8.77;;;3.70;;
1719;SDS011;857;52.872;9.692;2023-04-25T01:21:38;4.23;;;2.67;;
1719;SDS011;857;52.872;9.692;2023-04-25T01:24:05;5.77;;;3.37;;
1719;SDS011;857;52.872;9.692;2023-04-25T01:26:33;7.10;;;2.67;;
1719;SDS011;857;52.872;9.692;2023-04-25T01:29:03;9.67;;;2.83;;
1719;SDS011;857;52.872;9.692;2023-04-25T01:31:34;11.23;;;3.40;;
1719;SDS011;857;52.872;9.692;2023-04-25T01:34:05;7.97;;;3.40;;
1719;SDS011;857;52.872;9.692;2023-04-25T01:36:33;9.43;;;4.30;;
1719;SDS011;857;52.872;9.692;2023-04-25T01:39:03;6.40;;;4.13;;
1719;SDS011;857;52.872;9.692;2023-04-25T01:41:30;16.57;;;5.03;;
1719;SDS011;857;52.872;9.692;2023-04-25T01:44:00;9.50;;;4.10;;
1719;SDS011;857;52.872;9.692;2023-04-25T01:46:28;7.60;;;4.00;;
1719;SDS011;857;52.872;9.692;2023-04-25T01:48:56;14.23;;;4.57;;
1719;SDS011;857;52.872;9.692;2023-04-25T01:51:23;6.33;;;3.20;;
1719;SDS011;857;52.872;9.692;2023-04-25T01:53:51;7.80;;;3.30;;
1719;SDS011;857;52.872;9.692;2023-04-25T01:56:21;16.03;;;4.60;;
1719;SDS011;857;52.872;9.692;2023-04-25T01:58:48;14.87;;;3.30;;
1719;SDS011;857;52.872;9.692;2023-04-25T02:01:31;5.53;;;2.93;;
1719;SDS011;857;52.872;9.692;2023-04-25T02:04:12;10.30;;;3.93;;
1719;SDS011;857;52.872;9.692;2023-04-25T02:06:40;8.53;;;3.90;;
1719;SDS011;857;52.872;9.692;2023-04-25T02:09:08;9.13;;;3.70;;
1719;SDS011;857;52.872;9.692;2023-04-25T02:11:43;7.40;;;3.13;;
1719;SDS011;857;52.872;9.692;2023-04-25T02:14:29;7.07;;;2.70;;
1719;SDS011;857;52.872;9.692;2023-04-25T02:17:16;6.13;;;3.23;;
1719;SDS011;857;52.872;9.692;2023-04-25T02:19:44;7.37;;;3.73;;
1719;SDS011;857;52.872;9.692;2023-04-25T02:22:12;13.40;;;4.07;;
1719;SDS011;857;52.872;9.692;2023-04-25T02:24:40;9.20;;;3.50;;
1719;SDS011;857;52.872;9.692;2023-04-25T02:27:09;8.37;;;3.17;;
1719;SDS011;857;52.872;9.692;2023-04-25T02:29:36;12.20;;;3.83;;
1719;SDS011;857;52.872;9.692;2023-04-25T02:32:04;13.57;;;3.90;;
1719;SDS011;857;52.872;9.692;2023-04-25T02:34:32;10.27;;;3.60;;
1719;SDS011;857;52.872;9.692;2023-04-25T02:37:00;10.90;;;3.20;;
1719;SDS011;857;52.872;9.692;2023-04-25T02:39:27;14.07;;;4.00;;
1719;SDS011;857;52.872;9.692;2023-04-25T02:41:55;11.10;;;3.13;;
1719;SDS011;857;52.872;9.692;2023-04-25T02:44:24;13.03;;;3.57;;
1719;SDS011;857;52.872;9.692;2023-04-25T02:46:52;10.13;;;3.20;;
1719;SDS011;857;52.872;9.692;2023-04-25T02:49:20;14.70;;;3.77;;
1719;SDS011;857;52.872;9.692;2023-04-25T02:51:47;13.33;;;3.63;;
1719;SDS011;857;52.872;9.692;2023-04-25T02:54:15;12.37;;;3.53;;
1719;SDS011;857;52.872;9.692;2023-04-25T02:56:46;13.00;;;3.97;;
1719;SDS011;857;52.872;9.692;2023-04-25T02:59:19;8.47;;;3.00;;
1719;SDS011;857;52.872;9.692;2023-04-25T03:01:48;11.30;;;3.50;;
1719;SDS011;857;52.872;9.692;2023-04-25T03:04:16;11.83;;;4.07;;
1719;SDS011;857;52.872;9.692;2023-04-25T03:06:44;13.20;;;3.07;;
1719;SDS011;857;52.872;9.692;2023-04-25T03:09:12;8.50;;;3.60;;
1719;SDS011;857;52.872;9.692;2023-04-25T03:11:40;19.70;;;3.20;;
1719;SDS011;857;52.872;9.692;2023-04-25T03:14:07;10.47;;;4.10;;
1719;SDS011;857;52.872;9.692;2023-04-25T03:16:35;17.90;;;4.53;;
1719;SDS011;857;52.872;9.692;2023-04-25T03:19:04;13.43;;;3.73;;
1719;SDS011;857;52.872;9.692;2023-04-25T03:21:32;11.73;;;3.50;;
1719;SDS011;857;52.872;9.692;2023-04-25T03:24:00;10.37;;;3.30;;
1719;SDS011;857;52.872;9.692;2023-04-25T03:26:29;7.03;;;2.80;;
1719;SDS011;857;52.872;9.692;2023-04-25T03:28:56;8.87;;;2.97;;
1719;SDS011;857;52.872;9.692;2023-04-25T03:31:24;13.60;;;4.03;;
1719;SDS011;857;52.872;9.692;2023-04-25T03:33:52;13.30;;;3.80;;
1719;SDS011;857;52.872;9.692;2023-04-25T03:36:23;9.80;;;3.30;;
1719;SDS011;857;52.872;9.692;2023-04-25T03:38:50;12.57;;;3.37;;
1719;SDS011;857;52.872;9.692;2023-04-25T03:41:20;8.30;;;2.50;;
1719;SDS011;857;52.872;9.692;2023-04-25T03:43:54;10.50;;;4.00;;
1719;SDS011;857;52.872;9.692;2023-04-25T03:46:22;12.57;;;3.47;;
1719;SDS011;857;52.872;9.692;2023-04-25T03:48:49;10.23;;;3.10;;
1719;SDS011;857;52.872;9.692;2023-04-25T03:51:23;12.77;;;3.47;;
1719;SDS011;857;52.872;9.692;2023-04-25T03:53:51;11.97;;;2.73;;
1719;SDS011;857;52.872;9.692;2023-04-25T03:56:18;11.57;;;3.60;;
1719;SDS011;857;52.872;9.692;2023-04-25T03:58:52;11.20;;;3.03;;
1719;SDS011;857;52.872;9.692;2023-04-25T04:01:22;11.73;;;3.60;;
1719;SDS011;857;52.872;9.692;2023-04-25T04:03:50;13.17;;;3.57;;
1719;SDS011;857;52.872;9.692;2023-04-25T04:06:18;8.30;;;3.13;;
1719;SDS011;857;52.872;9.692;2023-04-25T04:08:52;8.77;;;3.37;;
1719;SDS011;857;52.872;9.692;2023-04-25T04:11:20;19.23;;;4.63;;
1719;SDS011;857;52.872;9.692;2023-04-25T04:13:48;14.70;;;3.20;;
1719;SDS011;857;52.872;9.692;2023-04-25T04:16:16;13.00;;;3.67;;
1719;SDS011;857;52.872;9.692;2023-04-25T04:18:44;18.30;;;4.00;;
1719;SDS011;857;52.872;9.692;2023-04-25T04:21:12;14.97;;;3.57;;
1719;SDS011;857;52.872;9.692;2023-04-25T04:23:41;10.50;;;3.30;;
1719;SDS011;857;52.872;9.692;2023-04-25T04:26:11;8.13;;;3.43;;
1719;SDS011;857;52.872;9.692;2023-04-25T04:28:41;7.80;;;3.30;;
1719;SDS011;857;52.872;9.692;2023-04-25T04:31:34;13.40;;;3.57;;
1719;SDS011;857;52.872;9.692;2023-04-25T04:34:02;16.20;;;5.10;;
1719;SDS011;857;52.872;9.692;2023-04-25T04:36:32;10.37;;;4.00;;
1719;SDS011;857;52.872;9.692;2023-04-25T04:39:00;19.03;;;4.57;;
1719;SDS011;857;52.872;9.692;2023-04-25T04:41:49;9.47;;;3.87;;
1719;SDS011;857;52.872;9.692;2023-04-25T04:44:43;14.50;;;4.07;;
1719;SDS011;857;52.872;9.692;2023-04-25T04:47:22;18.40;;;4.10;;
1719;SDS011;857;52.872;9.692;2023-04-25T04:50:14;10.83;;;4.23;;
1719;SDS011;857;52.872;9.692;2023-04-25T04:53:01;10.43;;;4.10;;
1719;SDS011;857;52.872;9.692;2023-04-25T04:55:47;12.40;;;3.90;;
1719;SDS011;857;52.872;9.692;2023-04-25T04:58:52;11.27;;;3.60;;
1719;SDS011;857;52.872;9.692;2023-04-25T05:01:55;8.07;;;3.80;;
1719;SDS011;857;52.872;9.692;2023-04-25T05:04:46;14.90;;;4.20;;
1719;SDS011;857;52.872;9.692;2023-04-25T05:07:49;10.23;;;3.33;;
1719;SDS011;857;52.872;9.692;2023-04-25T05:10:35;13.27;;;3.70;;
1719;SDS011;857;52.872;9.692;2023-04-25T05:13:23;9.97;;;3.37;;
1719;SDS011;857;52.872;9.692;2023-04-25T05:16:05;10.53;;;4.23;;
1719;SDS011;857;52.872;9.692;2023-04-25T05:18:48;8.97;;;3.50;;
1719;SDS011;857;52.872;9.692;2023-04-25T05:21:36;10.63;;;4.70;;
1719;SDS011;857;52.872;9.692;2023-04-25T05:24:22;8.53;;;3.90;;
1719;SDS011;857;52.872;9.692;2023-04-25T05:27:08;10.00;;;3.80;;
1719;SDS011;857;52.872;9.692;2023-04-25T05:30:04;8.27;;;3.50;;
1719;SDS011;857;52.872;9.692;2023-04-25T05:32:49;9.70;;;2.67;;
1719;SDS011;857;52.872;9.692;2023-04-25T05:35:17;9.53;;;3.67;;
1719;SDS011;857;52.872;9.692;2023-04-25T05:37:47;15.97;;;3.90;;
1719;SDS011;857;52.872;9.692;2023-04-25T05:40:15;12.80;;;3.50;;
1719;SDS011;857;52.872;9.692;2023-04-25T05:42:43;9.03;;;3.30;;
1719;SDS011;857;52.872;9.692;2023-04-25T05:45:30;15.77;;;3.60;;
1719;SDS011;857;52.872;9.692;2023-04-25T05:48:04;9.93;;;3.27;;
1719;SDS011;857;52.872;9.692;2023-04-25T05:50:40;10.30;;;3.63;;
1719;SDS011;857;52.872;9.692;2023-04-25T05:53:26;11.00;;;3.27;;
1719;SDS011;857;52.872;9.692;2023-04-25T05:55:59;11.43;;;3.53;;
1719;SDS011;857;52.872;9.692;2023-04-25T05:58:28;9.40;;;2.70;;
1719;SDS011;857;52.872;9.692;2023-04-25T06:00:57;5.80;;;2.80;;
1719;SDS011;857;52.872;9.692;2023-04-25T06:03:26;8.80;;;2.57;;
1719;SDS011;857;52.872;9.692;2023-04-25T06:05:56;9.83;;;2.50;;
1719;SDS011;857;52.872;9.692;2023-04-25T06:08:25;4.70;;;2.57;;
1719;SDS011;857;52.872;9.692;2023-04-25T06:10:53;6.43;;;2.33;;
1719;SDS011;857;52.872;9.692;2023-04-25T06:13:22;8.57;;;2.67;;
1719;SDS011;857;52.872;9.692;2023-04-25T06:15:50;10.63;;;2.77;;
1719;SDS011;857;52.872;9.692;2023-04-25T06:18:18;9.17;;;2.70;;
1719;SDS011;857;52.872;9.692;2023-04-25T06:20:47;9.10;;;2.47;;
1719;SDS011;857;52.872;9.692;2023-04-25T06:23:16;12.57;;;2.70;;
1719;SDS011;857;52.872;9.692;2023-04-25T06:26:00;10.10;;;2.70;;
1719;SDS011;857;52.872;9.692;2023-04-25T06:28:30;8.80;;;2.40;;
1719;SDS011;857;52.872;9.692;2023-04-25T06:30:58;7.80;;;3.00;;
1719;SDS011;857;52.872;9.692;2023-04-25T06:33:26;5.93;;;2.07;;
1719;SDS011;857;52.872;9.692;2023-04-25T06:35:57;18.80;;;2.77;;
1719;SDS011;857;52.872;9.692;2023-04-25T06:38:26;11.13;;;2.20;;
1719;SDS011;857;52.872;9.692;2023-04-25T06:40:56;6.80;;;2.53;;
1719;SDS011;857;52.872;9.692;2023-04-25T06:43:26;10.50;;;2.57;;
1719;SDS011;857;52.872;9.692;2023-04-25T06:46:12;7.30;;;2.07;;
1719;SDS011;857;52.872;9.692;2023-04-25T06:48:44;9.30;;;2.10;;
1719;SDS011;857;52.872;9.692;2023-04-25T06:51:13;6.53;;;2.37;;
1719;SDS011;857;52.872;9.692;2023-04-25T06:53:43;8.13;;;2.50;;
1719;SDS011;857;52.872;9.692;2023-04-25T06:56:21;3.90;;;2.07;;
1719;SDS011;857;52.872;9.692;2023-04-25T06:59:12;12.20;;;2.60;;
1719;SDS011;857;52.872;9.692;2023-04-25T07:01:40;7.87;;;2.40;;
1719;SDS011;857;52.872;9.692;2023-04-25T07:04:14;10.23;;;2.10;;
1719;SDS011;857;52.872;9.692;2023-04-25T07:06:49;7.20;;;2.03;;
1719;SDS011;857;52.872;9.692;2023-04-25T07:09:21;9.50;;;2.43;;
1719;SDS011;857;52.872;9.692;2023-04-25T07:11:50;4.10;;;1.73;;
1719;SDS011;857;52.872;9.692;2023-04-25T07:14:17;4.70;;;1.70;;
1719;SDS011;857;52.872;9.692;2023-04-25T07:16:45;7.00;;;2.10;;
1719;SDS011;857;52.872;9.692;2023-04-25T07:19:13;10.20;;;2.40;;
1719;SDS011;857;52.872;9.692;2023-04-25T07:21:41;6.57;;;1.83;;
1719;SDS011;857;52.872;9.692;2023-04-25T07:24:11;8.60;;;2.30;;
1719;SDS011;857;52.872;9.692;2023-04-25T07:26:43;3.70;;;1.87;;
1719;SDS011;857;52.872;9.692;2023-04-25T07:29:27;12.53;;;2.40;;
1719;SDS011;857;52.872;9.692;2023-04-25T07:31:58;5.03;;;1.97;;
1719;SDS011;857;52.872;9.692;2023-04-25T07:34:25;7.10;;;2.00;;
1719;SDS011;857;52.872;9.692;2023-04-25T07:36:54;3.77;;;1.90;;
1719;SDS011;857;52.872;9.692;2023-04-25T07:39:25;5.10;;;1.90;;
1719;SDS011;857;52.872;9.692;2023-04-25T07:41:53;7.93;;;1.97;;
1719;SDS011;857;52.872;9.692;2023-04-25T07:44:26;3.20;;;2.07;;
1719;SDS011;857;52.872;9.692;2023-04-25T07:46:56;4.40;;;1.50;;
1719;SDS011;857;52.872;9.692;2023-04-25T07:49:23;5.43;;;1.97;;
1719;SDS011;857;52.872;9.692;2023-04-25T07:51:51;10.03;;;2.40;;
1719;SDS011;857;52.872;9.692;2023-04-25T07:54:20;4.90;;;2.43;;
1719;SDS011;857;52.872;9.692;2023-04-25T07:56:54;3.23;;;1.60;;
1719;SDS011;857;52.872;9.692;2023-04-25T07:59:27;6.00;;;2.67;;
1719;SDS011;857;52.872;9.692;2023-04-25T08:01:54;4.37;;;2.40;;
1719;SDS011;857;52.872;9.692;2023-04-25T08:04:24;2.90;;;1.63;;
1719;SDS011;857;52.872;9.692;2023-04-25T08:06:56;4.33;;;1.63;;
1719;SDS011;857;52.872;9.692;2023-04-25T08:09:28;5.33;;;2.23;;
1719;SDS011;857;52.872;9.692;2023-04-25T08:14:36;5.13;;;1.97;;
1719;SDS011;857;52.872;9.692;2023-04-25T08:17:05;3.83;;;1.60;;
1719;SDS011;857;52.872;9.692;2023-04-25T08:19:39;8.70;;;2.53;;
1719;SDS011;857;52.872;9.692;2023-04-25T08:22:11;5.80;;;2.30;;
1719;SDS011;857;52.872;9.692;2023-04-25T08:24:50;3.73;;;1.97;;
1719;SDS011;857;52.872;9.692;2023-04-25T08:27:18;5.80;;;1.70;;
1719;SDS011;857;52.872;9.692;2023-04-25T08:29:48;4.17;;;1.80;;
1719;SDS011;857;52.872;9.692;2023-04-25T08:32:16;4.40;;;2.03;;
1719;SDS011;857;52.872;9.692;2023-04-25T08:34:58;3.40;;;1.47;;
1719;SDS011;857;52.872;9.692;2023-04-25T08:37:25;7.27;;;1.90;;
1719;SDS011;857;52.872;9.692;2023-04-25T08:39:58;4.00;;;1.60;;
1719;SDS011;857;52.872;9.692;2023-04-25T08:42:52;6.10;;;2.00;;
1719;SDS011;857;52.872;9.692;2023-04-25T08:45:22;4.77;;;2.20;;
1719;SDS011;857;52.872;9.692;2023-04-25T08:47:51;2.93;;;1.60;;
1719;SDS011;857;52.872;9.692;2023-04-25T08:50:19;6.00;;;1.87;;
1719;SDS011;857;52.872;9.692;2023-04-25T08:52:50;4.67;;;1.60;;
1719;SDS011;857;52.872;9.692;2023-04-25T08:55:21;8.90;;;2.37;;
1719;SDS011;857;52.872;9.692;2023-04-25T08:57:53;2.83;;;1.60;;
1719;SDS011;857;52.872;9.692;2023-04-25T09:00:23;3.53;;;1.37;;
1719;SDS011;857;52.872;9.692;2023-04-25T09:02:51;4.20;;;2.13;;
1719;SDS011;857;52.872;9.692;2023-04-25T09:05:20;6.10;;;2.20;;
1719;SDS011;857;52.872;9.692;2023-04-25T09:07:51;4.93;;;1.90;;
1719;SDS011;857;52.872;9.692;2023-04-25T09:10:19;3.97;;;1.57;;
1719;SDS011;857;52.872;9.692;2023-04-25T09:13:01;3.90;;;1.30;;
1719;SDS011;857;52.872;9.692;2023-04-25T09:15:33;6.20;;;1.97;;
1719;SDS011;857;52.872;9.692;2023-04-25T09:18:08;1.27;;;1.17;;
1719;SDS011;857;52.872;9.692;2023-04-25T09:20:41;2.87;;;1.40;;
1719;SDS011;857;52.872;9.692;2023-04-25T09:23:09;3.20;;;1.60;;
1719;SDS011;857;52.872;9.692;2023-04-25T09:25:37;5.10;;;1.30;;
1719;SDS011;857;52.872;9.692;2023-04-25T09:28:07;5.60;;;1.30;;
1719;SDS011;857;52.872;9.692;2023-04-25T09:30:36;3.27;;;1.40;;
1719;SDS011;857;52.872;9.692;2023-04-25T09:33:10;5.57;;;1.70;;
1719;SDS011;857;52.872;9.692;2023-04-25T09:35:43;4.27;;;1.53;;
1719;SDS011;857;52.872;9.692;2023-04-25T09:38:25;6.00;;;1.27;;
1719;SDS011;857;52.872;9.692;2023-04-25T09:41:22;3.23;;;1.50;;
1719;SDS011;857;52.872;9.692;2023-04-25T09:43:50;4.70;;;1.97;;
1719;SDS011;857;52.872;9.692;2023-04-25T09:46:20;7.10;;;1.80;;
1719;SDS011;857;52.872;9.692;2023-04-25T09:48:54;3.60;;;1.03;;
1719;SDS011;857;52.872;9.692;2023-04-25T09:51:29;2.83;;;0.90;;
1719;SDS011;857;52.872;9.692;2023-04-25T09:53:59;3.30;;;1.23;;
1719;SDS011;857;52.872;9.692;2023-04-25T09:56:46;2.97;;;1.10;;
1719;SDS011;857;52.872;9.692;2023-04-25T09:59:15;6.67;;;1.40;;
1719;SDS011;857;52.872;9.692;2023-04-25T10:01:44;2.37;;;1.17;;
1719;SDS011;857;52.872;9.692;2023-04-25T10:04:23;1.80;;;1.00;;
1719;SDS011;857;52.872;9.692;2023-04-25T10:07:01;3.33;;;1.07;;
1719;SDS011;857;52.872;9.692;2023-04-25T10:09:29;4.43;;;1.40;;
1719;SDS011;857;52.872;9.692;2023-04-25T10:11:59;2.40;;;1.03;;
1719;SDS011;857;52.872;9.692;2023-04-25T10:14:27;4.00;;;1.00;;
1719;SDS011;857;52.872;9.692;2023-04-25T10:16:56;3.00;;;0.90;;
1719;SDS011;857;52.872;9.692;2023-04-25T10:19:24;3.33;;;1.03;;
1719;SDS011;857;52.872;9.692;2023-04-25T10:21:56;2.80;;;1.37;;
1719;SDS011;857;52.872;9.692;2023-04-25T10:24:25;2.70;;;0.90;;
1719;SDS011;857;52.872;9.692;2023-04-25T10:26:53;9.60;;;1.40;;
1719;SDS011;857;52.872;9.692;2023-04-25T10:29:22;2.40;;;1.07;;
1719;SDS011;857;52.872;9.692;2023-04-25T10:31:50;3.57;;;1.03;;
1719;SDS011;857;52.872;9.692;2023-04-25T10:34:19;2.53;;;1.27;;
1719;SDS011;857;52.872;9.692;2023-04-25T10:36:51;5.30;;;0.93;;
1719;SDS011;857;52.872;9.692;2023-04-25T10:39:23;1.27;;;0.80;;
1719;SDS011;857;52.872;9.692;2023-04-25T10:41:55;3.90;;;1.33;;
1719;SDS011;857;52.872;9.692;2023-04-25T10:44:26;2.70;;;0.73;;
1719;SDS011;857;52.872;9.692;2023-04-25T10:46:54;3.00;;;0.90;;
1719;SDS011;857;52.872;9.692;2023-04-25T10:49:31;3.00;;;1.00;;
1719;SDS011;857;52.872;9.692;2023-04-25T10:52:12;3.50;;;1.10;;
1719;SDS011;857;52.872;9.692;2023-04-25T10:54:40;2.43;;;1.50;;
1719;SDS011;857;52.872;9.692;2023-04-25T10:59:51;7.83;;;1.60;;
1719;SDS011;857;52.872;9.692;2023-04-25T11:02:19;4.43;;;1.30;;
1719;SDS011;857;52.872;9.692;2023-04-25T11:04:48;3.43;;;1.03;;
1719;SDS011;857;52.872;9.692;2023-04-25T11:07:17;2.70;;;1.40;;
1719;SDS011;857;52.872;9.692;2023-04-25T11:09:48;1.27;;;0.83;;
1719;SDS011;857;52.872;9.692;2023-04-25T11:12:16;2.80;;;1.20;;
1719;SDS011;857;52.872;9.692;2023-04-25T11:14:44;2.63;;;1.00;;
1719;SDS011;857;52.872;9.692;2023-04-25T11:17:11;1.17;;;0.87;;
1719;SDS011;857;52.872;9.692;2023-04-25T11:19:39;4.63;;;1.43;;
1719;SDS011;857;52.872;9.692;2023-04-25T11:22:09;4.87;;;1.17;;
1719;SDS011;857;52.872;9.692;2023-04-25T11:24:37;2.57;;;1.10;;
1719;SDS011;857;52.872;9.692;2023-04-25T11:27:05;3.80;;;1.17;;
1719;SDS011;857;52.872;9.692;2023-04-25T11:29:33;2.67;;;1.10;;
1719;SDS011;857;52.872;9.692;2023-04-25T11:32:01;2.13;;;0.90;;
1719;SDS011;857;52.872;9.692;2023-04-25T11:34:29;3.43;;;0.80;;
1719;SDS011;857;52.872;9.692;2023-04-25T11:36:58;2.30;;;0.70;;
1719;SDS011;857;52.872;9.692;2023-04-25T11:39:28;1.30;;;1.00;;
1719;SDS011;857;52.872;9.692;2023-04-25T11:41:56;3.80;;;1.10;;
1719;SDS011;857;52.872;9.692;2023-04-25T11:44:24;4.00;;;0.80;;
1719;SDS011;857;52.872;9.692;2023-04-25T11:46:52;3.07;;;1.20;;
1719;SDS011;857;52.872;9.692;2023-04-25T11:49:20;5.40;;;1.03;;
1719;SDS011;857;52.872;9.692;2023-04-25T11:51:50;1.40;;;1.20;;
1719;SDS011;857;52.872;9.692;2023-04-25T11:54:18;1.50;;;0.70;;
1719;SDS011;857;52.872;9.692;2023-04-25T11:56:47;2.30;;;1.20;;
1719;SDS011;857;52.872;9.692;2023-04-25T11:59:15;4.67;;;1.10;;
1719;SDS011;857;52.872;9.692;2023-04-25T12:01:47;2.50;;;1.03;;
1719;SDS011;857;52.872;9.692;2023-04-25T12:04:16;1.83;;;1.10;;
1719;SDS011;857;52.872;9.692;2023-04-25T12:06:44;4.07;;;1.10;;
1719;SDS011;857;52.872;9.692;2023-04-25T12:09:14;1.57;;;1.00;;
1719;SDS011;857;52.872;9.692;2023-04-25T12:11:43;1.60;;;0.90;;
1719;SDS011;857;52.872;9.692;2023-04-25T12:14:12;3.10;;;1.10;;
1719;SDS011;857;52.872;9.692;2023-04-25T12:16:48;2.70;;;0.70;;
1719;SDS011;857;52.872;9.692;2023-04-25T12:19:16;2.90;;;1.40;;
1719;SDS011;857;52.872;9.692;2023-04-25T12:21:44;2.90;;;1.00;;
1719;SDS011;857;52.872;9.692;2023-04-25T12:24:13;2.63;;;0.87;;
1719;SDS011;857;52.872;9.692;2023-04-25T12:26:50;1.73;;;0.90;;
1719;SDS011;857;52.872;9.692;2023-04-25T12:29:21;3.87;;;1.07;;
1719;SDS011;857;52.872;9.692;2023-04-25T12:31:49;1.37;;;0.93;;
1719;SDS011;857;52.872;9.692;2023-04-25T12:34:17;1.70;;;1.00;;
1719;SDS011;857;52.872;9.692;2023-04-25T12:36:45;3.80;;;1.63;;
1719;SDS011;857;52.872;9.692;2023-04-25T12:39:16;2.30;;;0.90;;
1719;SDS011;857;52.872;9.692;2023-04-25T12:41:44;5.10;;;1.10;;
1719;SDS011;857;52.872;9.692;2023-04-25T12:44:12;2.67;;;0.80;;
1719;SDS011;857;52.872;9.692;2023-04-25T12:46:41;2.60;;;0.70;;
1719;SDS011;857;52.872;9.692;2023-04-25T12:49:09;1.53;;;0.83;;
1719;SDS011;857;52.872;9.692;2023-04-25T12:51:37;1.90;;;0.70;;
1719;SDS011;857;52.872;9.692;2023-04-25T12:54:05;1.07;;;0.50;;
1719;SDS011;857;52.872;9.692;2023-04-25T12:56:33;5.57;;;1.13;;
1719;SDS011;857;52.872;9.692;2023-04-25T12:59:01;2.30;;;1.07;;
1719;SDS011;857;52.872;9.692;2023-04-25T13:01:29;1.60;;;1.07;;
1719;SDS011;857;52.872;9.692;2023-04-25T13:03:59;1.40;;;0.83;;
1719;SDS011;857;52.872;9.692;2023-04-25T13:06:26;1.90;;;0.80;;
1719;SDS011;857;52.872;9.692;2023-04-25T13:08:55;2.93;;;1.07;;
1719;SDS011;857;52.872;9.692;2023-04-25T13:11:23;3.30;;;0.83;;
1719;SDS011;857;52.872;9.692;2023-04-25T13:13:50;0.97;;;0.77;;
1719;SDS011;857;52.872;9.692;2023-04-25T13:16:18;4.73;;;1.10;;
1719;SDS011;857;52.872;9.692;2023-04-25T13:18:47;1.17;;;0.70;;
1719;SDS011;857;52.872;9.692;2023-04-25T13:21:16;4.40;;;1.23;;
1719;SDS011;857;52.872;9.692;2023-04-25T13:23:44;4.70;;;1.13;;
1719;SDS011;857;52.872;9.692;2023-04-25T13:26:12;2.20;;;0.77;;
1719;SDS011;857;52.872;9.692;2023-04-25T13:28:40;2.33;;;0.80;;
1719;SDS011;857;52.872;9.692;2023-04-25T13:31:07;2.70;;;0.80;;
1719;SDS011;857;52.872;9.692;2023-04-25T13:33:35;1.63;;;0.93;;
1719;SDS011;857;52.872;9.692;2023-04-25T13:36:03;2.27;;;0.90;;
1719;SDS011;857;52.872;9.692;2023-04-25T13:38:32;0.80;;;0.70;;
1719;SDS011;857;52.872;9.692;2023-04-25T13:41:00;2.30;;;0.70;;
1719;SDS011;857;52.872;9.692;2023-04-25T13:43:27;1.70;;;0.73;;
1719;SDS011;857;52.872;9.692;2023-04-25T13:45:55;3.13;;;1.13;;
1719;SDS011;857;52.872;9.692;2023-04-25T13:48:23;2.30;;;0.53;;
1719;SDS011;857;52.872;9.692;2023-04-25T13:50:51;2.90;;;0.83;;
1719;SDS011;857;52.872;9.692;2023-04-25T13:53:19;1.47;;;0.63;;
1719;SDS011;857;52.872;9.692;2023-04-25T13:55:48;2.30;;;0.80;;
1719;SDS011;857;52.872;9.692;2023-04-25T13:58:16;5.73;;;1.10;;
1719;SDS011;857;52.872;9.692;2023-04-25T14:00:43;3.47;;;0.80;;
1719;SDS011;857;52.872;9.692;2023-04-25T14:03:12;0.97;;;0.70;;
1719;SDS011;857;52.872;9.692;2023-04-25T14:05:40;3.17;;;0.63;;
1719;SDS011;857;52.872;9.692;2023-04-25T14:08:08;1.80;;;0.80;;
1719;SDS011;857;52.872;9.692;2023-04-25T14:10:36;3.80;;;0.60;;
1719;SDS011;857;52.872;9.692;2023-04-25T14:13:05;2.27;;;0.93;;
1719;SDS011;857;52.872;9.692;2023-04-25T14:15:33;2.40;;;1.23;;
1719;SDS011;857;52.872;9.692;2023-04-25T14:18:01;5.20;;;0.97;;
1719;SDS011;857;52.872;9.692;2023-04-25T14:20:29;4.10;;;1.10;;
1719;SDS011;857;52.872;9.692;2023-04-25T14:22:57;2.13;;;0.70;;
1719;SDS011;857;52.872;9.692;2023-04-25T14:25:25;2.43;;;0.90;;
1719;SDS011;857;52.872;9.692;2023-04-25T14:27:53;2.40;;;1.07;;
1719;SDS011;857;52.872;9.692;2023-04-25T14:30:22;1.37;;;0.80;;
1719;SDS011;857;52.872;9.692;2023-04-25T14:32:49;2.60;;;1.03;;
1719;SDS011;857;52.872;9.692;2023-04-25T14:35:17;1.33;;;1.00;;
1719;SDS011;857;52.872;9.692;2023-04-25T14:37:45;1.10;;;1.00;;
1719;SDS011;857;52.872;9.692;2023-04-25T14:40:13;7.67;;;1.37;;
1719;SDS011;857;52.872;9.692;2023-04-25T14:42:42;1.20;;;1.00;;
1719;SDS011;857;52.872;9.692;2023-04-25T14:45:11;1.67;;;1.00;;
1719;SDS011;857;52.872;9.692;2023-04-25T14:47:40;2.70;;;1.20;;
1719;SDS011;857;52.872;9.692;2023-04-25T14:50:08;5.07;;;1.30;;
1719;SDS011;857;52.872;9.692;2023-04-25T14:52:36;2.43;;;1.30;;
1719;SDS011;857;52.872;9.692;2023-04-25T14:55:04;0.73;;;0.50;;
1719;SDS011;857;52.872;9.692;2023-04-25T14:57:32;3.03;;;0.90;;
1719;SDS011;857;52.872;9.692;2023-04-25T15:00:01;1.30;;;0.93;;
1719;SDS011;857;52.872;9.692;2023-04-25T15:02:30;1.30;;;1.10;;
1719;SDS011;857;52.872;9.692;2023-04-25T15:04:59;2.60;;;1.10;;
1719;SDS011;857;52.872;9.692;2023-04-25T15:07:28;5.33;;;1.13;;
1719;SDS011;857;52.872;9.692;2023-04-25T15:09:56;3.30;;;1.00;;
1719;SDS011;857;52.872;9.692;2023-04-25T15:12:24;1.80;;;0.63;;
1719;SDS011;857;52.872;9.692;2023-04-25T15:14:53;1.17;;;0.80;;
1719;SDS011;857;52.872;9.692;2023-04-25T15:17:21;1.10;;;0.80;;
1719;SDS011;857;52.872;9.692;2023-04-25T15:19:49;1.13;;;0.70;;
1719;SDS011;857;52.872;9.692;2023-04-25T15:22:18;3.50;;;1.10;;
1719;SDS011;857;52.872;9.692;2023-04-25T15:24:46;1.80;;;0.90;;
1719;SDS011;857;52.872;9.692;2023-04-25T15:27:14;5.23;;;1.33;;
1719;SDS011;857;52.872;9.692;2023-04-25T15:29:42;3.57;;;0.83;;
1719;SDS011;857;52.872;9.692;2023-04-25T15:32:10;2.33;;;1.03;;
1719;SDS011;857;52.872;9.692;2023-04-25T15:34:37;4.60;;;1.30;;
1719;SDS011;857;52.872;9.692;2023-04-25T15:37:05;2.83;;;1.40;;
1719;SDS011;857;52.872;9.692;2023-04-25T15:39:34;4.07;;;1.00;;
1719;SDS011;857;52.872;9.692;2023-04-25T15:42:02;5.87;;;1.00;;
1719;SDS011;857;52.872;9.692;2023-04-25T15:44:31;3.43;;;1.07;;
1719;SDS011;857;52.872;9.692;2023-04-25T15:46:59;2.40;;;1.00;;
1719;SDS011;857;52.872;9.692;2023-04-25T15:49:27;1.43;;;1.30;;
1719;SDS011;857;52.872;9.692;2023-04-25T15:51:55;1.33;;;0.60;;
1719;SDS011;857;52.872;9.692;2023-04-25T15:54:23;3.30;;;1.17;;
1719;SDS011;857;52.872;9.692;2023-04-25T15:56:52;2.77;;;1.07;;